sensor_id;sensor_type;location;lat;lon;timestamp;pressure;altitude;pressure_sealevel;temperature;humidity
57452;BME280;66031;51.224;-0.164;2023-01-23T00:01:32;102802.89;;;15.03;30.14
57452;BME280;66031;51.224;-0.164;2023-01-23T00:03:56;102801.37;;;15.22;30.12
57452;BME280;66031;51.224;-0.164;2023-01-23T00:06:21;102801.67;;;14.87;30.18
57452;BME280;66031;51.224;-0.164;2023-01-23T00:08:46;102802.92;;;14.73;30.34
57452;BME280;66031;51.224;-0.164;2023-01-23T00:11:14;102802.74;;;15.19;30.33
57452;BME280;66031;51.224;-0.164;2023-01-23T00:13:37;102800.45;;;14.67;30.34
57452;BME280;66031;51.224;-0.164;2023-01-23T00:16:04;102794.95;;;14.61;30.40
57452;BME280;66031;51.224;-0.164;2023-01-23T00:18:28;102790.77;;;14.63;30.31
57452;BME280;66031;51.224;-0.164;2023-01-23T00:20:52;102784.89;;;14.63;30.32
57452;BME280;66031;51.224;-0.164;2023-01-23T00:23:18;102780.95;;;14.51;30.37
57452;BME280;66031;51.224;-0.164;2023-01-23T00:25:43;102775.40;;;14.94;30.41
57452;BME280;66031;51.224;-0.164;2023-01-23T00:28:09;102774.80;;;14.41;30.40
57452;BME280;66031;51.224;-0.164;2023-01-23T00:30:34;102774.43;;;14.70;30.30
57452;BME280;66031;51.224;-0.164;2023-01-23T00:32:59;102768.15;;;14.88;30.26
57452;BME280;66031;51.224;-0.164;2023-01-23T00:35:25;102763.08;;;14.44;30.18
57452;BME280;66031;51.224;-0.164;2023-01-23T00:37:51;102759.67;;;14.37;30.25
57452;BME280;66031;51.224;-0.164;2023-01-23T00:40:16;102755.28;;;14.29;30.30
57452;BME280;66031;51.224;-0.164;2023-01-23T00:42:41;102752.64;;;14.71;30.33
57452;BME280;66031;51.224;-0.164;2023-01-23T00:45:07;102748.71;;;14.63;30.41
57452;BME280;66031;51.224;-0.164;2023-01-23T00:47:32;102746.82;;;14.62;30.34
57452;BME280;66031;51.224;-0.164;2023-01-23T00:49:57;102744.80;;;14.56;30.38
57452;BME280;66031;51.224;-0.164;2023-01-23T00:52:23;102743.49;;;14.34;30.38
57452;BME280;66031;51.224;-0.164;2023-01-23T00:54:48;102744.65;;;14.25;30.42
57452;BME280;66031;51.224;-0.164;2023-01-23T00:57:13;102745.87;;;14.03;30.35
57452;BME280;66031;51.224;-0.164;2023-01-23T00:59:39;102746.51;;;14.27;30.32
57452;BME280;66031;51.224;-0.164;2023-01-23T01:02:05;102747.51;;;14.46;30.36
57452;BME280;66031;51.224;-0.164;2023-01-23T01:04:30;102752.70;;;14.44;30.32
57452;BME280;66031;51.224;-0.164;2023-01-23T01:06:55;102755.24;;;14.44;30.32
57452;BME280;66031;51.224;-0.164;2023-01-23T01:09:21;102750.97;;;14.28;30.39
57452;BME280;66031;51.224;-0.164;2023-01-23T01:11:46;102751.35;;;14.30;30.34
57452;BME280;66031;51.224;-0.164;2023-01-23T01:14:11;102754.64;;;14.33;30.20
57452;BME280;66031;51.224;-0.164;2023-01-23T01:16:37;102757.27;;;14.28;30.30
57452;BME280;66031;51.224;-0.164;2023-01-23T01:19:02;102761.50;;;14.32;30.26
57452;BME280;66031;51.224;-0.164;2023-01-23T01:21:28;102763.89;;;13.97;29.88
57452;BME280;66031;51.224;-0.164;2023-01-23T01:23:53;102762.95;;;14.47;29.80
57452;BME280;66031;51.224;-0.164;2023-01-23T01:26:18;102757.91;;;14.38;30.06
57452;BME280;66031;51.224;-0.164;2023-01-23T01:28:44;102757.98;;;14.34;30.18
57452;BME280;66031;51.224;-0.164;2023-01-23T01:31:14;102758.28;;;14.26;30.09
57452;BME280;66031;51.224;-0.164;2023-01-23T01:33:36;102758.67;;;14.17;30.28
57452;BME280;66031;51.224;-0.164;2023-01-23T01:36:01;102760.94;;;14.12;30.25
57452;BME280;66031;51.224;-0.164;2023-01-23T01:38:26;102769.35;;;14.05;30.29
57452;BME280;66031;51.224;-0.164;2023-01-23T01:40:52;102773.33;;;14.02;30.27
57452;BME280;66031;51.224;-0.164;2023-01-23T01:43:19;102777.66;;;14.01;30.27
57452;BME280;66031;51.224;-0.164;2023-01-23T01:46:02;102779.91;;;14.21;30.25
57452;BME280;66031;51.224;-0.164;2023-01-23T01:48:08;102781.13;;;13.93;30.34
57452;BME280;66031;51.224;-0.164;2023-01-23T01:50:33;102777.65;;;13.87;30.34
57452;BME280;66031;51.224;-0.164;2023-01-23T01:52:58;102776.36;;;13.95;30.22
57452;BME280;66031;51.224;-0.164;2023-01-23T01:55:23;102774.50;;;13.95;30.22
57452;BME280;66031;51.224;-0.164;2023-01-23T01:57:48;102771.80;;;13.88;30.28
57452;BME280;66031;51.224;-0.164;2023-01-23T02:00:16;102768.65;;;13.59;30.32
57452;BME280;66031;51.224;-0.164;2023-01-23T02:02:42;102768.44;;;13.87;30.18
57452;BME280;66031;51.224;-0.164;2023-01-23T02:05:08;102767.57;;;13.80;30.20
57452;BME280;66031;51.224;-0.164;2023-01-23T02:07:34;102770.53;;;13.80;30.22
57452;BME280;66031;51.224;-0.164;2023-01-23T02:09:55;102769.27;;;13.99;30.22
57452;BME280;66031;51.224;-0.164;2023-01-23T02:12:20;102767.75;;;13.72;30.28
57452;BME280;66031;51.224;-0.164;2023-01-23T02:14:47;102770.75;;;13.87;30.36
57452;BME280;66031;51.224;-0.164;2023-01-23T02:17:13;102774.92;;;13.91;30.29
57452;BME280;66031;51.224;-0.164;2023-01-23T02:19:44;102775.89;;;13.96;30.23
57452;BME280;66031;51.224;-0.164;2023-01-23T02:22:09;102778.67;;;13.62;30.28
57452;BME280;66031;51.224;-0.164;2023-01-23T02:24:31;102780.62;;;13.57;30.30
57452;BME280;66031;51.224;-0.164;2023-01-23T02:26:53;102782.79;;;13.87;30.24
57452;BME280;66031;51.224;-0.164;2023-01-23T02:29:19;102784.20;;;13.78;30.25
57452;BME280;66031;51.224;-0.164;2023-01-23T02:31:45;102782.27;;;13.63;30.22
57452;BME280;66031;51.224;-0.164;2023-01-23T02:34:11;102777.84;;;13.59;30.14
57452;BME280;66031;51.224;-0.164;2023-01-23T02:36:36;102780.02;;;13.62;30.17
57452;BME280;66031;51.224;-0.164;2023-01-23T02:39:04;102788.64;;;13.77;30.23
57452;BME280;66031;51.224;-0.164;2023-01-23T02:41:28;102794.33;;;13.62;30.37
57452;BME280;66031;51.224;-0.164;2023-01-23T02:43:53;102802.49;;;13.52;30.18
57452;BME280;66031;51.224;-0.164;2023-01-23T02:46:18;102809.19;;;13.74;30.20
57452;BME280;66031;51.224;-0.164;2023-01-23T02:48:43;102808.78;;;13.45;30.15
57452;BME280;66031;51.224;-0.164;2023-01-23T02:51:08;102806.50;;;13.65;30.19
57452;BME280;66031;51.224;-0.164;2023-01-23T02:53:33;102801.31;;;13.64;30.24
57452;BME280;66031;51.224;-0.164;2023-01-23T02:55:59;102801.47;;;13.52;30.25
57452;BME280;66031;51.224;-0.164;2023-01-23T02:58:24;102810.25;;;13.47;30.27
57452;BME280;66031;51.224;-0.164;2023-01-23T03:00:49;102814.59;;;13.23;30.34
57452;BME280;66031;51.224;-0.164;2023-01-23T03:03:14;102810.79;;;13.41;30.34
57452;BME280;66031;51.224;-0.164;2023-01-23T03:05:39;102814.02;;;13.41;30.37
57452;BME280;66031;51.224;-0.164;2023-01-23T03:08:04;102819.13;;;13.61;30.31
57452;BME280;66031;51.224;-0.164;2023-01-23T03:10:30;102822.56;;;13.39;30.31
57452;BME280;66031;51.224;-0.164;2023-01-23T03:12:55;102824.28;;;13.44;30.23
57452;BME280;66031;51.224;-0.164;2023-01-23T03:15:20;102825.90;;;13.61;30.31
57452;BME280;66031;51.224;-0.164;2023-01-23T03:17:46;102826.49;;;13.36;30.23
57452;BME280;66031;51.224;-0.164;2023-01-23T03:20:11;102829.07;;;13.43;30.19
57452;BME280;66031;51.224;-0.164;2023-01-23T03:22:36;102830.40;;;13.40;30.12
57452;BME280;66031;51.224;-0.164;2023-01-23T03:25:02;102834.80;;;13.28;30.24
57452;BME280;66031;51.224;-0.164;2023-01-23T03:27:27;102832.37;;;13.49;30.25
57452;BME280;66031;51.224;-0.164;2023-01-23T03:29:52;102829.19;;;13.60;30.15
57452;BME280;66031;51.224;-0.164;2023-01-23T03:32:18;102827.02;;;13.27;30.16
57452;BME280;66031;51.224;-0.164;2023-01-23T03:34:44;102833.90;;;13.22;30.25
57452;BME280;66031;51.224;-0.164;2023-01-23T03:37:11;102835.41;;;13.39;30.31
57452;BME280;66031;51.224;-0.164;2023-01-23T03:39:35;102837.67;;;13.14;30.24
57452;BME280;66031;51.224;-0.164;2023-01-23T03:42:01;102839.55;;;13.10;30.29
57452;BME280;66031;51.224;-0.164;2023-01-23T03:44:26;102836.03;;;13.30;30.29
57452;BME280;66031;51.224;-0.164;2023-01-23T03:46:52;102836.55;;;13.31;30.26
57452;BME280;66031;51.224;-0.164;2023-01-23T03:49:18;102835.56;;;13.29;30.32
57452;BME280;66031;51.224;-0.164;2023-01-23T03:51:43;102839.95;;;13.02;30.30
57452;BME280;66031;51.224;-0.164;2023-01-23T03:54:08;102835.87;;;13.26;30.26
57452;BME280;66031;51.224;-0.164;2023-01-23T03:56:33;102837.57;;;13.22;30.36
57452;BME280;66031;51.224;-0.164;2023-01-23T03:58:58;102834.85;;;13.19;30.32
57452;BME280;66031;51.224;-0.164;2023-01-23T04:01:24;102836.78;;;12.95;30.23
57452;BME280;66031;51.224;-0.164;2023-01-23T04:03:49;102833.06;;;13.16;30.27
57452;BME280;66031;51.224;-0.164;2023-01-23T04:06:15;102830.75;;;13.14;30.29
57452;BME280;66031;51.224;-0.164;2023-01-23T04:08:40;102832.69;;;12.84;30.30
57452;BME280;66031;51.224;-0.164;2023-01-23T04:11:08;102835.61;;;13.11;30.27
57452;BME280;66031;51.224;-0.164;2023-01-23T04:13:31;102832.97;;;13.11;30.18
57452;BME280;66031;51.224;-0.164;2023-01-23T04:15:56;102826.37;;;13.07;30.28
57452;BME280;66031;51.224;-0.164;2023-01-23T04:18:21;102827.23;;;12.87;30.20
57452;BME280;66031;51.224;-0.164;2023-01-23T04:20:46;102829.70;;;12.89;30.18
57452;BME280;66031;51.224;-0.164;2023-01-23T04:23:11;102831.57;;;12.82;30.18
57452;BME280;66031;51.224;-0.164;2023-01-23T04:25:36;102834.44;;;13.06;30.19
57452;BME280;66031;51.224;-0.164;2023-01-23T04:28:02;102840.10;;;12.76;30.15
57452;BME280;66031;51.224;-0.164;2023-01-23T04:30:28;102837.62;;;13.11;30.02
57452;BME280;66031;51.224;-0.164;2023-01-23T04:32:53;102843.11;;;13.02;30.09
57452;BME280;66031;51.224;-0.164;2023-01-23T04:35:18;102846.24;;;12.73;30.12
57452;BME280;66031;51.224;-0.164;2023-01-23T04:37:44;102853.41;;;12.91;30.16
57452;BME280;66031;51.224;-0.164;2023-01-23T04:40:11;102854.77;;;13.11;30.17
57452;BME280;66031;51.224;-0.164;2023-01-23T04:42:35;102851.67;;;12.88;30.19
57452;BME280;66031;51.224;-0.164;2023-01-23T04:45:00;102852.24;;;12.80;30.15
57452;BME280;66031;51.224;-0.164;2023-01-23T04:47:25;102853.42;;;12.79;30.11
57452;BME280;66031;51.224;-0.164;2023-01-23T04:49:51;102852.74;;;12.82;30.14
57452;BME280;66031;51.224;-0.164;2023-01-23T04:52:16;102850.94;;;12.77;30.09
57452;BME280;66031;51.224;-0.164;2023-01-23T04:54:42;102853.10;;;12.57;30.09
57452;BME280;66031;51.224;-0.164;2023-01-23T04:57:07;102849.04;;;12.76;30.09
57452;BME280;66031;51.224;-0.164;2023-01-23T04:59:33;102844.99;;;12.74;30.11
57452;BME280;66031;51.224;-0.164;2023-01-23T05:01:59;102847.41;;;12.82;29.99
57452;BME280;66031;51.224;-0.164;2023-01-23T05:04:25;102850.80;;;12.78;30.02
57452;BME280;66031;51.224;-0.164;2023-01-23T05:06:50;102851.59;;;12.67;30.14
57452;BME280;66031;51.224;-0.164;2023-01-23T05:09:15;102851.97;;;12.70;30.09
57452;BME280;66031;51.224;-0.164;2023-01-23T05:11:41;102850.10;;;12.61;30.04
57452;BME280;66031;51.224;-0.164;2023-01-23T05:14:07;102847.61;;;12.60;30.13
57452;BME280;66031;51.224;-0.164;2023-01-23T05:16:32;102847.00;;;12.55;30.17
57452;BME280;66031;51.224;-0.164;2023-01-23T05:18:57;102848.34;;;12.65;30.01
57452;BME280;66031;51.224;-0.164;2023-01-23T05:21:24;102848.54;;;12.64;30.01
57452;BME280;66031;51.224;-0.164;2023-01-23T05:23:48;102848.89;;;13.05;30.02
57452;BME280;66031;51.224;-0.164;2023-01-23T05:26:13;102846.89;;;12.75;30.08
57452;BME280;66031;51.224;-0.164;2023-01-23T05:28:38;102849.54;;;12.46;30.11
57452;BME280;66031;51.224;-0.164;2023-01-23T05:31:04;102846.49;;;12.52;30.01
57452;BME280;66031;51.224;-0.164;2023-01-23T05:33:29;102842.45;;;12.61;30.02
57452;BME280;66031;51.224;-0.164;2023-01-23T05:35:58;102842.69;;;12.69;29.81
57452;BME280;66031;51.224;-0.164;2023-01-23T05:38:20;102838.57;;;13.46;29.22
57452;BME280;66031;51.224;-0.164;2023-01-23T05:40:46;102836.79;;;15.51;27.25
57452;BME280;66031;51.224;-0.164;2023-01-23T05:43:13;102832.74;;;15.94;26.72
57452;BME280;66031;51.224;-0.164;2023-01-23T05:45:36;102837.12;;;16.41;26.19
57452;BME280;66031;51.224;-0.164;2023-01-23T05:48:01;102834.66;;;16.50;26.06
57452;BME280;66031;51.224;-0.164;2023-01-23T05:50:27;102835.27;;;16.81;25.74
57452;BME280;66031;51.224;-0.164;2023-01-23T05:52:52;102832.77;;;16.66;25.62
57452;BME280;66031;51.224;-0.164;2023-01-23T05:55:18;102833.44;;;17.17;25.41
57452;BME280;66031;51.224;-0.164;2023-01-23T05:57:43;102837.92;;;17.46;25.18
57452;BME280;66031;51.224;-0.164;2023-01-23T06:00:12;102835.06;;;17.66;25.11
57452;BME280;66031;51.224;-0.164;2023-01-23T06:02:34;102835.87;;;17.47;25.11
57452;BME280;66031;51.224;-0.164;2023-01-23T06:05:00;102838.27;;;17.68;24.97
57452;BME280;66031;51.224;-0.164;2023-01-23T06:07:25;102843.51;;;17.68;24.85
57452;BME280;66031;51.224;-0.164;2023-01-23T06:09:50;102844.68;;;18.14;24.70
57452;BME280;66031;51.224;-0.164;2023-01-23T06:12:15;102846.65;;;17.98;24.71
57452;BME280;66031;51.224;-0.164;2023-01-23T06:14:40;102846.48;;;18.08;24.67
57452;BME280;66031;51.224;-0.164;2023-01-23T06:17:06;102845.68;;;18.18;24.64
57452;BME280;66031;51.224;-0.164;2023-01-23T06:19:31;102844.25;;;18.44;24.53
57452;BME280;66031;51.224;-0.164;2023-01-23T06:21:57;102843.91;;;18.54;24.44
57452;BME280;66031;51.224;-0.164;2023-01-23T06:24:22;102846.17;;;18.28;24.50
57452;BME280;66031;51.224;-0.164;2023-01-23T06:26:47;102848.72;;;18.78;24.37
57452;BME280;66031;51.224;-0.164;2023-01-23T06:29:12;102853.28;;;19.03;24.22
57452;BME280;66031;51.224;-0.164;2023-01-23T06:31:38;102858.99;;;19.06;24.23
57452;BME280;66031;51.224;-0.164;2023-01-23T06:34:03;102861.19;;;18.75;24.25
57452;BME280;66031;51.224;-0.164;2023-01-23T06:36:30;102857.65;;;18.52;24.47
57452;BME280;66031;51.224;-0.164;2023-01-23T06:38:54;102862.35;;;18.93;24.17
57452;BME280;66031;51.224;-0.164;2023-01-23T06:41:19;102861.48;;;18.71;24.36
57452;BME280;66031;51.224;-0.164;2023-01-23T06:43:45;102860.25;;;19.07;24.22
57452;BME280;66031;51.224;-0.164;2023-01-23T06:46:11;102859.91;;;18.81;24.28
57452;BME280;66031;51.224;-0.164;2023-01-23T06:48:37;102858.49;;;18.69;24.18
57452;BME280;66031;51.224;-0.164;2023-01-23T06:51:02;102862.61;;;19.09;24.04
57452;BME280;66031;51.224;-0.164;2023-01-23T06:53:27;102865.00;;;18.89;23.95
57452;BME280;66031;51.224;-0.164;2023-01-23T06:55:53;102865.76;;;18.99;23.91
57452;BME280;66031;51.224;-0.164;2023-01-23T06:58:19;102865.88;;;19.67;23.75
57452;BME280;66031;51.224;-0.164;2023-01-23T07:00:44;102868.22;;;19.15;23.75
57452;BME280;66031;51.224;-0.164;2023-01-23T07:03:10;102869.07;;;19.33;23.79
57452;BME280;66031;51.224;-0.164;2023-01-23T07:05:35;102871.31;;;18.98;23.87
57452;BME280;66031;51.224;-0.164;2023-01-23T07:07:59;102873.93;;;19.64;23.85
57452;BME280;66031;51.224;-0.164;2023-01-23T07:10:25;102876.03;;;19.31;23.78
57452;BME280;66031;51.224;-0.164;2023-01-23T07:12:50;102875.41;;;19.29;23.88
57452;BME280;66031;51.224;-0.164;2023-01-23T07:15:16;102870.72;;;19.27;23.96
57452;BME280;66031;51.224;-0.164;2023-01-23T07:17:41;102868.40;;;18.78;24.61
57452;BME280;66031;51.224;-0.164;2023-01-23T07:20:08;102870.48;;;19.44;24.10
57452;BME280;66031;51.224;-0.164;2023-01-23T07:22:32;102869.49;;;19.03;24.06
57452;BME280;66031;51.224;-0.164;2023-01-23T07:24:57;102868.03;;;19.13;24.13
57452;BME280;66031;51.224;-0.164;2023-01-23T07:27:23;102873.12;;;19.46;24.22
57452;BME280;66031;51.224;-0.164;2023-01-23T07:29:49;102874.91;;;19.30;24.09
57452;BME280;66031;51.224;-0.164;2023-01-23T07:32:15;102876.89;;;19.85;23.94
57452;BME280;66031;51.224;-0.164;2023-01-23T07:34:40;102875.97;;;19.16;24.32
57452;BME280;66031;51.224;-0.164;2023-01-23T07:37:05;102879.77;;;19.34;24.75
57452;BME280;66031;51.224;-0.164;2023-01-23T07:39:30;102877.56;;;19.40;24.64
57452;BME280;66031;51.224;-0.164;2023-01-23T07:41:55;102877.17;;;18.94;24.89
57452;BME280;66031;51.224;-0.164;2023-01-23T07:44:21;102879.44;;;18.80;25.30
57452;BME280;66031;51.224;-0.164;2023-01-23T07:46:48;102882.17;;;19.32;25.07
57452;BME280;66031;51.224;-0.164;2023-01-23T07:49:13;102881.28;;;19.05;25.22
57452;BME280;66031;51.224;-0.164;2023-01-23T07:51:38;102885.70;;;19.38;24.47
57452;BME280;66031;51.224;-0.164;2023-01-23T07:54:03;102882.81;;;19.62;24.31
57452;BME280;66031;51.224;-0.164;2023-01-23T07:56:29;102882.06;;;19.76;24.12
57452;BME280;66031;51.224;-0.164;2023-01-23T07:58:54;102883.56;;;19.62;24.20
57452;BME280;66031;51.224;-0.164;2023-01-23T08:01:20;102883.95;;;19.72;24.11
57452;BME280;66031;51.224;-0.164;2023-01-23T08:03:46;102882.28;;;19.33;24.27
57452;BME280;66031;51.224;-0.164;2023-01-23T08:06:11;102882.51;;;18.79;24.84
57452;BME280;66031;51.224;-0.164;2023-01-23T08:08:37;102878.46;;;17.07;26.26
57452;BME280;66031;51.224;-0.164;2023-01-23T08:11:03;102871.05;;;18.39;25.13
57452;BME280;66031;51.224;-0.164;2023-01-23T08:13:28;102872.35;;;17.35;26.02
57452;BME280;66031;51.224;-0.164;2023-01-23T08:15:54;102869.05;;;18.27;25.54
57452;BME280;66031;51.224;-0.164;2023-01-23T08:18:19;102864.44;;;16.57;26.93
57452;BME280;66031;51.224;-0.164;2023-01-23T08:20:53;102866.37;;;17.52;25.85
57452;BME280;66031;51.224;-0.164;2023-01-23T08:23:10;102864.20;;;16.73;26.63
57452;BME280;66031;51.224;-0.164;2023-01-23T08:25:37;102867.04;;;16.62;26.96
57452;BME280;66031;51.224;-0.164;2023-01-23T08:28:01;102866.79;;;16.25;26.71
57452;BME280;66031;51.224;-0.164;2023-01-23T08:30:26;102869.27;;;16.62;26.68
57452;BME280;66031;51.224;-0.164;2023-01-23T08:32:52;102867.13;;;16.34;26.62
57452;BME280;66031;51.224;-0.164;2023-01-23T08:35:18;102867.01;;;16.21;26.65
57452;BME280;66031;51.224;-0.164;2023-01-23T08:37:44;102865.71;;;16.00;26.59
57452;BME280;66031;51.224;-0.164;2023-01-23T08:40:10;102867.98;;;15.92;26.84
57452;BME280;66031;51.224;-0.164;2023-01-23T08:42:34;102874.78;;;15.69;26.97
57452;BME280;66031;51.224;-0.164;2023-01-23T08:45:00;102872.72;;;15.90;26.91
57452;BME280;66031;51.224;-0.164;2023-01-23T08:47:25;102868.20;;;15.75;27.25
57452;BME280;66031;51.224;-0.164;2023-01-23T08:49:50;102870.59;;;15.54;27.41
57452;BME280;66031;51.224;-0.164;2023-01-23T08:52:16;102873.49;;;15.08;27.56
57452;BME280;66031;51.224;-0.164;2023-01-23T08:54:41;102876.65;;;15.27;27.65
57452;BME280;66031;51.224;-0.164;2023-01-23T08:57:06;102873.57;;;15.31;27.58
57452;BME280;66031;51.224;-0.164;2023-01-23T08:59:32;102874.64;;;15.30;27.43
57452;BME280;66031;51.224;-0.164;2023-01-23T09:01:57;102873.25;;;15.35;27.35
57452;BME280;66031;51.224;-0.164;2023-01-23T09:04:22;102873.52;;;15.43;27.27
57452;BME280;66031;51.224;-0.164;2023-01-23T09:06:48;102876.51;;;15.82;27.19
57452;BME280;66031;51.224;-0.164;2023-01-23T09:09:13;102878.22;;;16.05;26.32
57452;BME280;66031;51.224;-0.164;2023-01-23T09:11:38;102883.13;;;16.01;25.96
57452;BME280;66031;51.224;-0.164;2023-01-23T09:14:03;102886.06;;;16.13;25.88
57452;BME280;66031;51.224;-0.164;2023-01-23T09:16:28;102884.04;;;16.51;25.87
57452;BME280;66031;51.224;-0.164;2023-01-23T09:18:54;102887.14;;;16.37;25.58
57452;BME280;66031;51.224;-0.164;2023-01-23T09:21:19;102888.05;;;16.37;25.61
57452;BME280;66031;51.224;-0.164;2023-01-23T09:23:45;102892.37;;;16.26;25.87
57452;BME280;66031;51.224;-0.164;2023-01-23T09:26:12;102893.47;;;16.82;25.78
57452;BME280;66031;51.224;-0.164;2023-01-23T09:28:37;102895.29;;;16.56;26.12
57452;BME280;66031;51.224;-0.164;2023-01-23T09:31:02;102903.36;;;16.91;25.84
57452;BME280;66031;51.224;-0.164;2023-01-23T09:33:26;102902.82;;;17.45;25.14
57452;BME280;66031;51.224;-0.164;2023-01-23T09:35:52;102900.80;;;18.30;24.39
57452;BME280;66031;51.224;-0.164;2023-01-23T09:38:18;102902.09;;;18.04;24.41
57452;BME280;66031;51.224;-0.164;2023-01-23T09:40:48;102903.18;;;18.40;24.34
57452;BME280;66031;51.224;-0.164;2023-01-23T09:43:14;102907.57;;;18.07;24.70
57452;BME280;66031;51.224;-0.164;2023-01-23T09:45:35;102906.77;;;17.31;25.15
57452;BME280;66031;51.224;-0.164;2023-01-23T09:48:09;102909.41;;;17.56;25.34
57452;BME280;66031;51.224;-0.164;2023-01-23T09:50:28;102910.39;;;16.76;25.79
57452;BME280;66031;51.224;-0.164;2023-01-23T09:52:57;102908.48;;;16.53;26.22
57452;BME280;66031;51.224;-0.164;2023-01-23T09:55:22;102915.01;;;16.41;26.22
57452;BME280;66031;51.224;-0.164;2023-01-23T09:57:45;102916.26;;;16.04;26.63
57452;BME280;66031;51.224;-0.164;2023-01-23T10:00:14;102919.09;;;16.44;26.36
57452;BME280;66031;51.224;-0.164;2023-01-23T10:02:33;102923.65;;;16.43;26.31
57452;BME280;66031;51.224;-0.164;2023-01-23T10:04:59;102927.25;;;15.99;26.65
57452;BME280;66031;51.224;-0.164;2023-01-23T10:07:38;102928.37;;;16.17;26.51
57452;BME280;66031;51.224;-0.164;2023-01-23T10:10:00;102927.80;;;15.71;26.91
57452;BME280;66031;51.224;-0.164;2023-01-23T10:12:25;102931.44;;;15.82;27.02
57452;BME280;66031;51.224;-0.164;2023-01-23T10:17:13;102938.86;;;15.63;27.18
57452;BME280;66031;51.224;-0.164;2023-01-23T10:19:41;102940.92;;;15.42;27.13
57452;BME280;66031;51.224;-0.164;2023-01-23T10:22:00;102942.14;;;15.98;26.62
57452;BME280;66031;51.224;-0.164;2023-01-23T10:24:37;102943.05;;;15.51;27.06
57452;BME280;66031;51.224;-0.164;2023-01-23T10:26:50;102943.23;;;15.67;26.89
57452;BME280;66031;51.224;-0.164;2023-01-23T10:29:22;102949.77;;;15.74;27.09
57452;BME280;66031;51.224;-0.164;2023-01-23T10:31:43;102950.92;;;16.41;26.37
57452;BME280;66031;51.224;-0.164;2023-01-23T10:34:14;102947.18;;;15.62;26.89
57452;BME280;66031;51.224;-0.164;2023-01-23T10:36:35;102946.85;;;16.63;26.14
57452;BME280;66031;51.224;-0.164;2023-01-23T10:39:02;102944.58;;;16.37;26.72
57452;BME280;66031;51.224;-0.164;2023-01-23T10:41:22;102945.17;;;16.47;26.61
57452;BME280;66031;51.224;-0.164;2023-01-23T10:43:51;102946.99;;;15.92;27.18
57452;BME280;66031;51.224;-0.164;2023-01-23T10:46:15;102947.78;;;15.83;27.07
57452;BME280;66031;51.224;-0.164;2023-01-23T10:48:42;102953.78;;;15.66;27.16
57452;BME280;66031;51.224;-0.164;2023-01-23T10:53:30;102953.24;;;15.80;27.20
57452;BME280;66031;51.224;-0.164;2023-01-23T10:55:57;102948.76;;;15.73;27.40
57452;BME280;66031;51.224;-0.164;2023-01-23T10:58:28;102951.22;;;15.69;27.35
57452;BME280;66031;51.224;-0.164;2023-01-23T11:00:46;102949.65;;;16.11;26.95
57452;BME280;66031;51.224;-0.164;2023-01-23T11:03:23;102946.91;;;16.03;27.09
57452;BME280;66031;51.224;-0.164;2023-01-23T11:05:39;102934.70;;;15.54;27.48
57452;BME280;66031;51.224;-0.164;2023-01-23T11:10:29;102923.09;;;15.34;27.61
57452;BME280;66031;51.224;-0.164;2023-01-23T11:12:54;102917.04;;;15.27;27.73
57452;BME280;66031;51.224;-0.164;2023-01-23T11:15:22;102914.71;;;15.71;27.79
57452;BME280;66031;51.224;-0.164;2023-01-23T11:17:46;102910.94;;;15.08;27.93
57452;BME280;66031;51.224;-0.164;2023-01-23T11:20:21;102914.65;;;15.31;27.95
57452;BME280;66031;51.224;-0.164;2023-01-23T11:22:38;102916.85;;;15.04;28.02
57452;BME280;66031;51.224;-0.164;2023-01-23T11:27:28;102919.25;;;15.27;27.99
57452;BME280;66031;51.224;-0.164;2023-01-23T11:30:05;102919.04;;;15.25;27.83
57452;BME280;66031;51.224;-0.164;2023-01-23T11:32:19;102918.76;;;15.02;28.02
57452;BME280;66031;51.224;-0.164;2023-01-23T11:34:48;102923.53;;;15.06;27.95
57452;BME280;66031;51.224;-0.164;2023-01-23T11:37:12;102920.71;;;15.02;28.00
57452;BME280;66031;51.224;-0.164;2023-01-23T11:39:41;102917.78;;;15.10;27.96
57452;BME280;66031;51.224;-0.164;2023-01-23T11:42:00;102923.02;;;15.10;28.20
57452;BME280;66031;51.224;-0.164;2023-01-23T11:44:25;102922.45;;;14.83;28.22
57452;BME280;66031;51.224;-0.164;2023-01-23T11:49:27;102918.11;;;15.25;28.30
57452;BME280;66031;51.224;-0.164;2023-01-23T11:51:49;102911.34;;;14.90;28.13
57452;BME280;66031;51.224;-0.164;2023-01-23T11:54:18;102913.70;;;14.81;28.21
57452;BME280;66031;51.224;-0.164;2023-01-23T11:56:42;102909.29;;;15.18;28.34
57452;BME280;66031;51.224;-0.164;2023-01-23T11:59:09;102899.23;;;14.92;28.07
57452;BME280;66031;51.224;-0.164;2023-01-23T12:01:29;102899.38;;;14.93;28.30
57452;BME280;66031;51.224;-0.164;2023-01-23T12:04:10;102900.95;;;14.87;28.30
57452;BME280;66031;51.224;-0.164;2023-01-23T12:06:24;102902.93;;;15.10;28.30
57452;BME280;66031;51.224;-0.164;2023-01-23T12:08:44;102899.24;;;15.02;28.35
57452;BME280;66031;51.224;-0.164;2023-01-23T12:11:11;102897.67;;;14.66;28.44
57452;BME280;66031;51.224;-0.164;2023-01-23T12:13:43;102896.59;;;14.49;28.59
57452;BME280;66031;51.224;-0.164;2023-01-23T12:16:04;102894.26;;;14.19;28.64
57452;BME280;66031;51.224;-0.164;2023-01-23T12:18:30;102897.40;;;14.82;28.48
57452;BME280;66031;51.224;-0.164;2023-01-23T12:20:53;102898.08;;;14.33;28.48
57452;BME280;66031;51.224;-0.164;2023-01-23T12:23:23;102901.68;;;14.19;28.58
57452;BME280;66031;51.224;-0.164;2023-01-23T12:25:39;102902.85;;;14.60;28.64
57452;BME280;66031;51.224;-0.164;2023-01-23T12:28:13;102900.25;;;14.58;28.67
57452;BME280;66031;51.224;-0.164;2023-01-23T12:30:44;102899.87;;;13.85;28.43
57452;BME280;66031;51.224;-0.164;2023-01-23T12:33:04;102901.00;;;14.52;28.16
57452;BME280;66031;51.224;-0.164;2023-01-23T12:35:31;102898.05;;;14.40;28.33
57452;BME280;66031;51.224;-0.164;2023-01-23T12:37:55;102897.07;;;14.68;28.47
57452;BME280;66031;51.224;-0.164;2023-01-23T12:40:12;102897.25;;;14.50;28.60
57452;BME280;66031;51.224;-0.164;2023-01-23T12:42:42;102897.41;;;14.38;28.73